sensor_id;sensor_type;location;lat;lon;timestamp;pressure;altitude;pressure_sealevel;temperature;humidity
78623;BME280;67943;54.412;9.502;2023-06-22T00:02:44;101860.78;;;16.86;72.31
78623;BME280;67943;54.412;9.502;2023-06-22T00:07:46;101860.06;;;16.81;72.34
78623;BME280;67943;54.412;9.502;2023-06-22T00:12:49;101859.09;;;16.84;72.60
78623;BME280;67943;54.412;9.502;2023-06-22T00:17:51;101862.72;;;16.81;72.35
78623;BME280;67943;54.412;9.502;2023-06-22T00:22:52;101862.19;;;16.70;72.15
78623;BME280;67943;54.412;9.502;2023-06-22T00:27:55;101869.47;;;16.64;72.19
78623;BME280;67943;54.412;9.502;2023-06-22T00:32:56;101874.97;;;16.56;72.27
78623;BME280;67943;54.412;9.502;2023-06-22T00:37:59;101880.31;;;16.54;72.13
78623;BME280;67943;54.412;9.502;2023-06-22T00:43:03;101877.69;;;16.53;71.63
78623;BME280;67943;54.412;9.502;2023-06-22T00:48:06;101873.44;;;16.47;71.79
78623;BME280;67943;54.412;9.502;2023-06-22T00:53:09;101877.31;;;16.36;71.62
78623;BME280;67943;54.412;9.502;2023-06-22T00:58:13;101889.16;;;16.24;71.78
78623;BME280;67943;54.412;9.502;2023-06-22T01:03:15;101886.63;;;16.19;72.91
78623;BME280;67943;54.412;9.502;2023-06-22T01:08:26;101879.75;;;16.12;71.90
78623;BME280;67943;54.412;9.502;2023-06-22T01:13:39;101883.50;;;16.05;72.17
78623;BME280;67943;54.412;9.502;2023-06-22T01:18:43;101880.16;;;15.97;71.88
78623;BME280;67943;54.412;9.502;2023-06-22T01:23:54;101875.00;;;15.91;72.54
78623;BME280;67943;54.412;9.502;2023-06-22T01:29:04;101877.88;;;15.83;72.48
78623;BME280;67943;54.412;9.502;2023-06-22T01:34:07;101874.47;;;15.78;72.99
78623;BME280;67943;54.412;9.502;2023-06-22T01:39:10;101873.69;;;15.75;73.20
78623;BME280;67943;54.412;9.502;2023-06-22T01:44:14;101871.94;;;15.74;73.79
78623;BME280;67943;54.412;9.502;2023-06-22T01:49:16;101876.59;;;15.64;73.32
78623;BME280;67943;54.412;9.502;2023-06-22T01:54:18;101888.91;;;15.67;73.75
78623;BME280;67943;54.412;9.502;2023-06-22T01:59:25;101890.59;;;15.71;73.28
78623;BME280;67943;54.412;9.502;2023-06-22T02:04:33;101892.53;;;15.64;73.05
78623;BME280;67943;54.412;9.502;2023-06-22T02:09:38;101893.56;;;15.59;73.96
78623;BME280;67943;54.412;9.502;2023-06-22T02:14:43;101904.19;;;15.59;74.00
78623;BME280;67943;54.412;9.502;2023-06-22T02:19:46;101896.94;;;15.64;73.48
78623;BME280;67943;54.412;9.502;2023-06-22T02:24:48;101894.34;;;15.62;73.09
78623;BME280;67943;54.412;9.502;2023-06-22T02:29:51;101902.34;;;15.61;73.42
78623;BME280;67943;54.412;9.502;2023-06-22T02:34:52;101909.38;;;15.62;73.29
78623;BME280;67943;54.412;9.502;2023-06-22T02:39:54;101898.03;;;15.57;72.79
78623;BME280;67943;54.412;9.502;2023-06-22T02:44:57;101894.78;;;15.44;73.36
78623;BME280;67943;54.412;9.502;2023-06-22T02:49:59;101886.09;;;15.37;74.80
78623;BME280;67943;54.412;9.502;2023-06-22T02:55:00;101888.88;;;15.31;73.88
78623;BME280;67943;54.412;9.502;2023-06-22T03:00:04;101890.03;;;15.21;74.01
78623;BME280;67943;54.412;9.502;2023-06-22T03:05:16;101897.19;;;15.16;74.27
78623;BME280;67943;54.412;9.502;2023-06-22T03:10:19;101887.69;;;15.06;74.26
78623;BME280;67943;54.412;9.502;2023-06-22T03:15:22;101898.31;;;15.06;73.91
78623;BME280;67943;54.412;9.502;2023-06-22T03:20:23;101895.66;;;15.06;74.83
78623;BME280;67943;54.412;9.502;2023-06-22T03:25:27;101893.78;;;15.11;75.17
78623;BME280;67943;54.412;9.502;2023-06-22T03:30:29;101891.91;;;15.16;75.30
78623;BME280;67943;54.412;9.502;2023-06-22T03:35:31;101888.28;;;15.20;75.54
78623;BME280;67943;54.412;9.502;2023-06-22T03:40:32;101890.78;;;15.26;75.39
78623;BME280;67943;54.412;9.502;2023-06-22T03:45:35;101880.03;;;15.31;75.10
78623;BME280;67943;54.412;9.502;2023-06-22T03:50:37;101894.97;;;15.35;75.17
78623;BME280;67943;54.412;9.502;2023-06-22T03:55:47;101891.28;;;15.42;75.35
78623;BME280;67943;54.412;9.502;2023-06-22T04:00:51;101892.06;;;15.45;75.84
78623;BME280;67943;54.412;9.502;2023-06-22T04:05:53;101906.03;;;15.53;76.00
78623;BME280;67943;54.412;9.502;2023-06-22T04:10:55;101908.47;;;15.63;76.47
78623;BME280;67943;54.412;9.502;2023-06-22T04:15:58;101909.00;;;15.77;76.54
78623;BME280;67943;54.412;9.502;2023-06-22T04:21:01;101920.88;;;15.96;76.44
78623;BME280;67943;54.412;9.502;2023-06-22T04:26:02;101916.94;;;16.12;76.46
78623;BME280;67943;54.412;9.502;2023-06-22T04:31:05;101915.47;;;16.33;76.54
78623;BME280;67943;54.412;9.502;2023-06-22T04:36:07;101915.19;;;16.44;76.12
78623;BME280;67943;54.412;9.502;2023-06-22T04:41:09;101914.06;;;16.51;76.04
78623;BME280;67943;54.412;9.502;2023-06-22T04:46:15;101926.13;;;16.64;75.76
78623;BME280;67943;54.412;9.502;2023-06-22T04:51:17;101923.94;;;16.78;75.25
78623;BME280;67943;54.412;9.502;2023-06-22T04:56:21;101915.81;;;16.83;75.30
78623;BME280;67943;54.412;9.502;2023-06-22T05:01:29;101921.34;;;17.05;75.82
78623;BME280;67943;54.412;9.502;2023-06-22T05:06:32;101920.91;;;17.20;75.79
78623;BME280;67943;54.412;9.502;2023-06-22T05:11:33;101919.53;;;17.35;76.00
78623;BME280;67943;54.412;9.502;2023-06-22T05:16:36;101922.50;;;17.53;76.33
78623;BME280;67943;54.412;9.502;2023-06-22T05:21:38;101914.13;;;17.66;76.87
78623;BME280;67943;54.412;9.502;2023-06-22T05:26:39;101932.34;;;17.78;77.05
78623;BME280;67943;54.412;9.502;2023-06-22T05:31:42;101931.88;;;17.92;77.78
78623;BME280;67943;54.412;9.502;2023-06-22T05:36:44;101921.59;;;18.07;78.12
78623;BME280;67943;54.412;9.502;2023-06-22T05:41:45;101923.41;;;18.30;77.87
78623;BME280;67943;54.412;9.502;2023-06-22T05:46:49;101936.63;;;18.58;77.22
78623;BME280;67943;54.412;9.502;2023-06-22T05:51:50;101937.69;;;18.77;76.79
78623;BME280;67943;54.412;9.502;2023-06-22T05:56:52;101940.56;;;18.96;75.69
78623;BME280;67943;54.412;9.502;2023-06-22T06:01:54;101932.94;;;19.09;75.87
78623;BME280;67943;54.412;9.502;2023-06-22T06:06:56;101933.22;;;19.25;75.43
78623;BME280;67943;54.412;9.502;2023-06-22T06:11:57;101928.38;;;19.34;75.10
78623;BME280;67943;54.412;9.502;2023-06-22T06:17:00;101917.06;;;19.49;73.09
78623;BME280;67943;54.412;9.502;2023-06-22T06:22:02;101926.94;;;19.69;71.49
78623;BME280;67943;54.412;9.502;2023-06-22T06:27:04;101918.88;;;19.71;71.48
78623;BME280;67943;54.412;9.502;2023-06-22T06:32:08;101920.97;;;19.84;70.24
78623;BME280;67943;54.412;9.502;2023-06-22T06:37:09;101925.91;;;19.94;70.76
78623;BME280;67943;54.412;9.502;2023-06-22T06:42:11;101926.69;;;20.17;68.91
78623;BME280;67943;54.412;9.502;2023-06-22T06:47:14;101926.78;;;20.35;66.54
78623;BME280;67943;54.412;9.502;2023-06-22T06:52:15;101928.44;;;20.39;67.47
78623;BME280;67943;54.412;9.502;2023-06-22T06:57:17;101931.41;;;20.51;66.62
78623;BME280;67943;54.412;9.502;2023-06-22T07:02:20;101921.50;;;20.53;67.07
78623;BME280;67943;54.412;9.502;2023-06-22T07:07:21;101914.69;;;20.85;65.43
78623;BME280;67943;54.412;9.502;2023-06-22T07:12:23;101925.69;;;20.98;63.18
78623;BME280;67943;54.412;9.502;2023-06-22T07:17:26;101913.47;;;21.30;59.40
78623;BME280;67943;54.412;9.502;2023-06-22T07:22:27;101918.78;;;21.49;59.70
78623;BME280;67943;54.412;9.502;2023-06-22T07:27:29;101924.09;;;21.68;59.78
78623;BME280;67943;54.412;9.502;2023-06-22T07:32:39;101919.06;;;21.96;58.67
78623;BME280;67943;54.412;9.502;2023-06-22T07:37:41;101918.31;;;22.11;58.63
78623;BME280;67943;54.412;9.502;2023-06-22T07:42:42;101923.38;;;22.17;56.20
78623;BME280;67943;54.412;9.502;2023-06-22T07:47:45;101932.00;;;22.40;54.73
78623;BME280;67943;54.412;9.502;2023-06-22T07:52:46;101928.22;;;22.44;55.04
78623;BME280;67943;54.412;9.502;2023-06-22T07:57:49;101921.38;;;22.54;54.44
78623;BME280;67943;54.412;9.502;2023-06-22T08:02:53;101910.00;;;22.66;54.83
78623;BME280;67943;54.412;9.502;2023-06-22T08:07:54;101922.63;;;22.97;53.06
78623;BME280;67943;54.412;9.502;2023-06-22T08:12:56;101924.13;;;23.18;53.12
78623;BME280;67943;54.412;9.502;2023-06-22T08:17:59;101926.94;;;23.47;52.45
78623;BME280;67943;54.412;9.502;2023-06-22T08:23:01;101917.00;;;23.65;51.37
78623;BME280;67943;54.412;9.502;2023-06-22T08:28:06;101923.25;;;23.95;50.55
78623;BME280;67943;54.412;9.502;2023-06-22T08:33:09;101921.97;;;24.16;48.99
78623;BME280;67943;54.412;9.502;2023-06-22T08:38:11;101915.84;;;24.29;48.75
78623;BME280;67943;54.412;9.502;2023-06-22T08:43:16;101905.31;;;24.54;49.32
78623;BME280;67943;54.412;9.502;2023-06-22T08:48:19;101903.84;;;24.77;47.37
78623;BME280;67943;54.412;9.502;2023-06-22T08:53:20;101903.66;;;25.08;44.85
78623;BME280;67943;54.412;9.502;2023-06-22T08:58:22;101888.56;;;25.06;45.34
78623;BME280;67943;54.412;9.502;2023-06-22T09:03:25;101889.13;;;25.11;44.41
78623;BME280;67943;54.412;9.502;2023-06-22T09:08:27;101878.22;;;25.12;46.22
78623;BME280;67943;54.412;9.502;2023-06-22T09:13:30;101878.59;;;25.47;44.78
78623;BME280;67943;54.412;9.502;2023-06-22T09:18:33;101883.09;;;25.74;43.99
78623;BME280;67943;54.412;9.502;2023-06-22T09:23:35;101884.59;;;26.17;42.11
78623;BME280;67943;54.412;9.502;2023-06-22T09:28:36;101892.56;;;26.19;41.88
78623;BME280;67943;54.412;9.502;2023-06-22T09:33:39;101892.22;;;25.58;42.52
78623;BME280;67943;54.412;9.502;2023-06-22T09:38:42;101878.72;;;25.85;42.80
78623;BME280;67943;54.412;9.502;2023-06-22T09:43:43;101872.47;;;26.10;42.68
78623;BME280;67943;54.412;9.502;2023-06-22T09:48:46;101873.91;;;26.54;42.83
78623;BME280;67943;54.412;9.502;2023-06-22T09:53:47;101866.38;;;26.96;40.64
78623;BME280;67943;54.412;9.502;2023-06-22T09:58:49;101860.88;;;26.97;41.05
78623;BME280;67943;54.412;9.502;2023-06-22T10:03:55;101861.38;;;27.50;39.71
78623;BME280;67943;54.412;9.502;2023-06-22T10:08:56;101858.22;;;27.56;39.49
78623;BME280;67943;54.412;9.502;2023-06-22T10:13:58;101856.84;;;27.50;38.39
78623;BME280;67943;54.412;9.502;2023-06-22T10:19:01;101847.78;;;27.86;37.70
78623;BME280;67943;54.412;9.502;2023-06-22T10:24:03;101852.69;;;28.28;37.10
78623;BME280;67943;54.412;9.502;2023-06-22T10:29:06;101853.53;;;28.28;37.28
78623;BME280;67943;54.412;9.502;2023-06-22T10:34:09;101857.59;;;28.45;36.64
78623;BME280;67943;54.412;9.502;2023-06-22T10:39:10;101855.50;;;28.48;35.92
78623;BME280;67943;54.412;9.502;2023-06-22T10:44:12;101842.81;;;28.71;36.62
78623;BME280;67943;54.412;9.502;2023-06-22T10:49:15;101833.19;;;28.89;36.85
78623;BME280;67943;54.412;9.502;2023-06-22T10:54:16;101822.09;;;28.93;35.29
78623;BME280;67943;54.412;9.502;2023-06-22T10:59:19;101806.59;;;28.72;35.87
78623;BME280;67943;54.412;9.502;2023-06-22T11:04:23;101812.25;;;28.80;34.72
78623;BME280;67943;54.412;9.502;2023-06-22T11:09:24;101810.16;;;29.27;34.12
78623;BME280;67943;54.412;9.502;2023-06-22T11:14:26;101813.78;;;29.48;34.15
78623;BME280;67943;54.412;9.502;2023-06-22T11:19:29;101802.47;;;29.85;32.65
78623;BME280;67943;54.412;9.502;2023-06-22T11:24:30;101809.31;;;30.00;33.32
78623;BME280;67943;54.412;9.502;2023-06-22T11:29:32;101805.84;;;29.98;31.71
78623;BME280;67943;54.412;9.502;2023-06-22T11:34:34;101795.75;;;30.00;31.26
78623;BME280;67943;54.412;9.502;2023-06-22T11:39:36;101792.34;;;29.87;30.39
78623;BME280;67943;54.412;9.502;2023-06-22T11:44:37;101796.94;;;29.66;31.59
78623;BME280;67943;54.412;9.502;2023-06-22T11:49:40;101793.38;;;30.16;30.03
78623;BME280;67943;54.412;9.502;2023-06-22T11:54:42;101795.53;;;29.92;29.50
78623;BME280;67943;54.412;9.502;2023-06-22T11:59:43;101783.56;;;29.74;30.38
78623;BME280;67943;54.412;9.502;2023-06-22T12:04:46;101782.63;;;29.84;30.48
78623;BME280;67943;54.412;9.502;2023-06-22T12:09:48;101768.22;;;30.14;30.13
78623;BME280;67943;54.412;9.502;2023-06-22T12:14:50;101770.44;;;30.70;30.41
78623;BME280;67943;54.412;9.502;2023-06-22T12:19:52;101759.25;;;30.64;30.63
78623;BME280;67943;54.412;9.502;2023-06-22T12:24:54;101742.00;;;30.34;30.28
78623;BME280;67943;54.412;9.502;2023-06-22T12:29:55;101742.94;;;30.54;29.92
78623;BME280;67943;54.412;9.502;2023-06-22T12:34:58;101726.38;;;30.57;30.84
78623;BME280;67943;54.412;9.502;2023-06-22T12:40:00;101723.47;;;30.49;29.41
78623;BME280;67943;54.412;9.502;2023-06-22T12:45:01;101724.38;;;30.59;29.82
78623;BME280;67943;54.412;9.502;2023-06-22T12:50:05;101717.81;;;30.90;28.38
78623;BME280;67943;54.412;9.502;2023-06-22T12:55:08;101704.94;;;30.83;31.00
78623;BME280;67943;54.412;9.502;2023-06-22T13:00:10;101712.38;;;31.00;31.03
78623;BME280;67943;54.412;9.502;2023-06-22T13:05:13;101701.94;;;31.34;31.28
78623;BME280;67943;54.412;9.502;2023-06-22T13:10:15;101699.66;;;31.20;32.49
78623;BME280;67943;54.412;9.502;2023-06-22T13:15:16;101697.66;;;31.22;31.84
78623;BME280;67943;54.412;9.502;2023-06-22T13:20:19;101697.34;;;31.44;31.30
78623;BME280;67943;54.412;9.502;2023-06-22T13:25:21;101695.56;;;31.53;29.90
78623;BME280;67943;54.412;9.502;2023-06-22T13:30:26;101710.88;;;31.64;29.99
78623;BME280;67943;54.412;9.502;2023-06-22T13:35:29;101687.47;;;31.24;31.06
78623;BME280;67943;54.412;9.502;2023-06-22T13:40:30;101678.63;;;31.03;30.60
78623;BME280;67943;54.412;9.502;2023-06-22T13:45:32;101685.75;;;31.23;30.08
78623;BME280;67943;54.412;9.502;2023-06-22T13:50:35;101678.59;;;31.32;30.78
78623;BME280;67943;54.412;9.502;2023-06-22T13:55:37;101687.03;;;31.38;30.38
78623;BME280;67943;54.412;9.502;2023-06-22T14:00:38;101682.13;;;31.51;29.81
78623;BME280;67943;54.412;9.502;2023-06-22T14:05:42;101684.03;;;31.41;31.59
78623;BME280;67943;54.412;9.502;2023-06-22T14:10:43;101678.22;;;31.64;31.80
78623;BME280;67943;54.412;9.502;2023-06-22T14:15:45;101682.81;;;31.63;32.03
78623;BME280;67943;54.412;9.502;2023-06-22T14:20:49;101672.44;;;31.86;30.62
78623;BME280;67943;54.412;9.502;2023-06-22T14:25:51;101656.09;;;31.86;30.87
78623;BME280;67943;54.412;9.502;2023-06-22T14:30:52;101653.19;;;31.97;30.08
78623;BME280;67943;54.412;9.502;2023-06-22T14:35:55;101646.88;;;31.97;29.49
78623;BME280;67943;54.412;9.502;2023-06-22T14:40:57;101640.06;;;31.83;29.16
78623;BME280;67943;54.412;9.502;2023-06-22T14:45:58;101632.13;;;31.72;29.35
78623;BME280;67943;54.412;9.502;2023-06-22T14:51:02;101626.81;;;31.61;29.77
78623;BME280;67943;54.412;9.502;2023-06-22T14:56:04;101618.03;;;31.39;29.50
78623;BME280;67943;54.412;9.502;2023-06-22T15:01:05;101612.53;;;31.12;30.47
78623;BME280;67943;54.412;9.502;2023-06-22T15:06:09;101605.81;;;30.97;29.70
78623;BME280;67943;54.412;9.502;2023-06-22T15:11:11;101603.06;;;31.06;29.45
78623;BME280;67943;54.412;9.502;2023-06-22T15:16:13;101607.81;;;31.14;31.94
78623;BME280;67943;54.412;9.502;2023-06-22T15:21:15;101599.38;;;30.98;34.36
78623;BME280;67943;54.412;9.502;2023-06-22T15:26:17;101592.13;;;30.79;34.53
78623;BME280;67943;54.412;9.502;2023-06-22T15:31:18;101589.41;;;30.69;34.34
78623;BME280;67943;54.412;9.502;2023-06-22T15:36:21;101587.84;;;30.57;34.07
78623;BME280;67943;54.412;9.502;2023-06-22T15:41:23;101581.94;;;30.33;34.31
78623;BME280;67943;54.412;9.502;2023-06-22T15:46:24;101567.63;;;30.11;35.22
78623;BME280;67943;54.412;9.502;2023-06-22T15:51:27;101580.81;;;29.76;35.58
78623;BME280;67943;54.412;9.502;2023-06-22T15:56:29;101574.00;;;29.41;35.64
78623;BME280;67943;54.412;9.502;2023-06-22T16:01:30;101575.81;;;29.10;36.50
78623;BME280;67943;54.412;9.502;2023-06-22T16:06:33;101567.53;;;28.70;36.60
78623;BME280;67943;54.412;9.502;2023-06-22T16:11:36;101575.41;;;28.41;37.16
78623;BME280;67943;54.412;9.502;2023-06-22T16:16:37;101570.19;;;28.17;37.40
78623;BME280;67943;54.412;9.502;2023-06-22T16:21:40;101556.63;;;27.97;37.40
78623;BME280;67943;54.412;9.502;2023-06-22T16:26:42;101553.19;;;27.72;37.62
78623;BME280;67943;54.412;9.502;2023-06-22T16:31:44;101552.72;;;27.56;37.97
78623;BME280;67943;54.412;9.502;2023-06-22T16:36:47;101545.38;;;27.36;38.88
78623;BME280;67943;54.412;9.502;2023-06-22T16:41:48;101538.59;;;27.19;38.03
78623;BME280;67943;54.412;9.502;2023-06-22T16:46:51;101536.94;;;26.83;39.43
78623;BME280;67943;54.412;9.502;2023-06-22T16:51:54;101519.09;;;26.69;39.36
78623;BME280;67943;54.412;9.502;2023-06-22T16:56:55;101539.66;;;26.48;39.26
78623;BME280;67943;54.412;9.502;2023-06-22T17:02:00;101544.38;;;26.33;39.88
78623;BME280;67943;54.412;9.502;2023-06-22T17:07:08;101535.38;;;26.21;39.72
78623;BME280;67943;54.412;9.502;2023-06-22T17:12:12;101522.06;;;26.07;40.05
78623;BME280;67943;54.412;9.502;2023-06-22T17:17:15;101520.50;;;25.92;40.68
78623;BME280;67943;54.412;9.502;2023-06-22T17:22:19;101519.03;;;25.88;40.66
78623;BME280;67943;54.412;9.502;2023-06-22T17:27:27;101509.13;;;25.76;40.75
78623;BME280;67943;54.412;9.502;2023-06-22T17:32:29;101509.47;;;25.71;40.68
78623;BME280;67943;54.412;9.502;2023-06-22T17:37:47;101503.88;;;25.62;40.67
78623;BME280;67943;54.412;9.502;2023-06-22T17:42:49;101504.75;;;25.49;41.11
78623;BME280;67943;54.412;9.502;2023-06-22T17:47:52;101506.53;;;25.38;41.33
78623;BME280;67943;54.412;9.502;2023-06-22T17:52:56;101511.50;;;25.31;41.87
78623;BME280;67943;54.412;9.502;2023-06-22T17:57:58;101498.34;;;25.27;41.87
78623;BME280;67943;54.412;9.502;2023-06-22T18:03:00;101489.56;;;25.12;42.88
78623;BME280;67943;54.412;9.502;2023-06-22T18:08:04;101476.00;;;25.01;41.96
78623;BME280;67943;54.412;9.502;2023-06-22T18:13:07;101460.25;;;24.95;42.19
78623;BME280;67943;54.412;9.502;2023-06-22T18:18:09;101453.56;;;24.87;41.77
78623;BME280;67943;54.412;9.502;2023-06-22T18:23:12;101463.06;;;24.80;41.84
78623;BME280;67943;54.412;9.502;2023-06-22T18:28:16;101465.63;;;24.69;42.12
78623;BME280;67943;54.412;9.502;2023-06-22T18:33:19;101466.47;;;24.57;42.20
78623;BME280;67943;54.412;9.502;2023-06-22T18:38:22;101472.53;;;24.48;42.59
78623;BME280;67943;54.412;9.502;2023-06-22T18:43:24;101470.56;;;24.37;42.95
78623;BME280;67943;54.412;9.502;2023-06-22T18:48:25;101468.19;;;24.33;43.10
78623;BME280;67943;54.412;9.502;2023-06-22T18:53:28;101462.25;;;24.28;44.15
78623;BME280;67943;54.412;9.502;2023-06-22T18:58:30;101463.72;;;24.19;44.07
78623;BME280;67943;54.412;9.502;2023-06-22T19:03:31;101451.16;;;24.19;44.27
78623;BME280;67943;54.412;9.502;2023-06-22T19:14:19;101468.09;;;24.07;44.62
78623;BME280;67943;54.412;9.502;2023-06-22T19:19:21;101477.53;;;24.00;44.87
78623;BME280;67943;54.412;9.502;2023-06-22T19:24:28;101484.84;;;23.98;45.28
78623;BME280;67943;54.412;9.502;2023-06-22T19:29:32;101487.00;;;23.93;45.03
78623;BME280;67943;54.412;9.502;2023-06-22T19:34:34;101492.13;;;23.83;45.69
78623;BME280;67943;54.412;9.502;2023-06-22T19:39:36;101511.22;;;23.79;46.03
78623;BME280;67943;54.412;9.502;2023-06-22T19:44:39;101509.03;;;23.71;46.17
78623;BME280;67943;54.412;9.502;2023-06-22T19:49:41;101506.19;;;23.60;46.89
78623;BME280;67943;54.412;9.502;2023-06-22T19:54:43;101512.97;;;23.51;46.60
78623;BME280;67943;54.412;9.502;2023-06-22T19:59:46;101519.50;;;23.47;46.97
78623;BME280;67943;54.412;9.502;2023-06-22T20:04:49;101512.06;;;23.38;47.26
78623;BME280;67943;54.412;9.502;2023-06-22T20:10:05;101523.56;;;23.26;47.41
78623;BME280;67943;54.412;9.502;2023-06-22T20:15:17;101522.59;;;23.13;47.40
78623;BME280;67943;54.412;9.502;2023-06-22T20:20:21;101514.19;;;23.05;47.41
78623;BME280;67943;54.412;9.502;2023-06-22T20:25:24;101514.56;;;22.99;47.96
78623;BME280;67943;54.412;9.502;2023-06-22T20:30:27;101513.22;;;22.92;48.20
78623;BME280;67943;54.412;9.502;2023-06-22T20:35:28;101509.72;;;22.75;48.30
78623;BME280;67943;54.412;9.502;2023-06-22T20:40:30;101502.91;;;22.70;48.78
78623;BME280;67943;54.412;9.502;2023-06-22T20:45:33;101511.41;;;22.62;49.18
78623;BME280;67943;54.412;9.502;2023-06-22T20:50:35;101495.22;;;22.49;49.33
78623;BME280;67943;54.412;9.502;2023-06-22T20:55:36;101489.88;;;22.34;49.72
78623;BME280;67943;54.412;9.502;2023-06-22T21:00:40;101489.22;;;22.30;49.60
78623;BME280;67943;54.412;9.502;2023-06-22T21:05:42;101485.38;;;22.34;50.01
78623;BME280;67943;54.412;9.502;2023-06-22T21:10:44;101483.47;;;22.36;50.07
78623;BME280;67943;54.412;9.502;2023-06-22T21:15:47;101482.44;;;22.39;50.87
78623;BME280;67943;54.412;9.502;2023-06-22T21:20:48;101486.34;;;22.33;51.63
78623;BME280;67943;54.412;9.502;2023-06-22T21:25:50;101483.47;;;22.22;52.12
78623;BME280;67943;54.412;9.502;2023-06-22T21:30:53;101484.59;;;22.18;52.64
78623;BME280;67943;54.412;9.502;2023-06-22T21:35:54;101475.28;;;22.09;53.33
78623;BME280;67943;54.412;9.502;2023-06-22T21:40:56;101474.75;;;22.03;53.63
78623;BME280;67943;54.412;9.502;2023-06-22T21:45:58;101467.91;;;21.97;53.41
78623;BME280;67943;54.412;9.502;2023-06-22T21:51:00;101463.88;;;21.90;53.89
78623;BME280;67943;54.412;9.502;2023-06-22T21:56:02;101466.91;;;21.84;54.01
78623;BME280;67943;54.412;9.502;2023-06-22T22:01:04;101464.06;;;21.87;54.19
78623;BME280;67943;54.412;9.502;2023-06-22T22:06:06;101463.00;;;21.89;53.96
78623;BME280;67943;54.412;9.502;2023-06-22T22:11:08;101470.78;;;21.94;54.29
78623;BME280;67943;54.412;9.502;2023-06-22T22:16:11;101461.97;;;21.92;54.33
78623;BME280;67943;54.412;9.502;2023-06-22T22:21:13;101447.97;;;21.87;54.52
78623;BME280;67943;54.412;9.502;2023-06-22T22:26:14;101432.25;;;21.81;54.84
78623;BME280;67943;54.412;9.502;2023-06-22T22:31:17;101434.84;;;21.82;54.53
78623;BME280;67943;54.412;9.502;2023-06-22T22:36:18;101430.34;;;21.83;54.96
78623;BME280;67943;54.412;9.502;2023-06-22T22:41:21;101414.97;;;21.71;55.50
78623;BME280;67943;54.412;9.502;2023-06-22T22:46:24;101425.88;;;21.68;55.99
78623;BME280;67943;54.412;9.502;2023-06-22T22:51:25;101422.41;;;21.66;56.52
78623;BME280;67943;54.412;9.502;2023-06-22T22:56:27;101419.56;;;21.69;57.00
78623;BME280;67943;54.412;9.502;2023-06-22T23:01:30;101405.13;;;21.71;57.20
78623;BME280;67943;54.412;9.502;2023-06-22T23:06:33;101395.28;;;21.72;57.36
78623;BME280;67943;54.412;9.502;2023-06-22T23:11:38;101408.84;;;21.69;57.67
78623;BME280;67943;54.412;9.502;2023-06-22T23:16:40;101411.25;;;21.73;57.86
78623;BME280;67943;54.412;9.502;2023-06-22T23:21:43;101427.25;;;21.75;57.71
78623;BME280;67943;54.412;9.502;2023-06-22T23:26:44;101432.50;;;21.76;57.85
78623;BME280;67943;54.412;9.502;2023-06-22T23:31:49;101424.56;;;21.75;57.96
78623;BME280;67943;54.412;9.502;2023-06-22T23:36:50;101429.94;;;21.75;57.87
78623;BME280;67943;54.412;9.502;2023-06-22T23:41:52;101443.31;;;21.75;57.75
78623;BME280;67943;54.412;9.502;2023-06-22T23:46:55;101428.53;;;21.68;58.30
78623;BME280;67943;54.412;9.502;2023-06-22T23:51:58;101431.53;;;21.63;58.61
78623;BME280;67943;54.412;9.502;2023-06-22T23:56:59;101432.38;;;21.64;58.75
